PWSweather.com
Personal Weather Stations
Station Observations
WAREHAM1
West Wareham, MA 02576

West Wareham, MA 02576

Lat: 41.7961059, Lon: -70.775612

Elevation: 88

Station Type: Davis Vantage Vue

http://www.gateway2capecod.com

High Low Average
Temperature 71.4°F21.9°C 65.1°F18.4°C 67.2°F19.6°C
Dew Point 66.4°F19.1°C 63.5°F17.5°C 64.8°F18.2°C
Winds 4.9 mph 7.9 kmh Calm Calm 2.0 mph E3.2 kmh E
Wind Gusts 15.0 mph24.1 kmh -- 7.0 mph11.3 kmh
Humidity 97% 81% 92%
Pressure 30.18 in1022.0 mb 30.08 in1018.6 mb -
Precipitation 0.13 in3.3 mm - -
Hour Temp Dew Point Humidity Winds Wind Gusts Pressure Precip Precip Rate Daily Precip Total
12:03 AM 65.8°F18.8°C 64.6°F18.1°C 96% 0.9 mph E1.4 kmh E 6.0 mph9.7 kmh 30.08 in1018.6 mb 0.00 in0.0 mm 0.00 in0.0 mm 0.00 in0.0 mm
12:13 AM 65.8°F18.8°C 64.6°F18.1°C 96% 2.0 mph NE3.2 kmh NE 7.0 mph11.3 kmh 30.08 in1018.6 mb 0.01 in0.3 mm 0.06 in1.5 mm 0.01 in0.3 mm
12:23 AM 65.8°F18.8°C 64.9°F18.3°C 97% 2.0 mph NE3.2 kmh NE 6.0 mph9.7 kmh 30.08 in1018.6 mb 0.01 in0.3 mm 0.00 in0.0 mm 0.01 in0.3 mm
12:33 AM 65.8°F18.8°C 64.9°F18.3°C 97% 0.9 mph ENE1.4 kmh ENE 8.1 mph13.0 kmh 30.09 in1019.0 mb 0.01 in0.3 mm 0.00 in0.0 mm 0.01 in0.3 mm
12:43 AM 65.8°F18.8°C 64.9°F18.3°C 97% 0.9 mph E1.4 kmh E 4.0 mph6.4 kmh 30.08 in1018.6 mb 0.01 in0.3 mm 0.00 in0.0 mm 0.01 in0.3 mm
12:53 AM 65.8°F18.8°C 64.9°F18.3°C 97% 2.0 mph ENE3.2 kmh ENE 6.0 mph9.7 kmh 30.09 in1019.0 mb 0.01 in0.3 mm 0.00 in0.0 mm 0.01 in0.3 mm
01:03 AM 66.0°F18.9°C 65.1°F18.4°C 97% 0.9 mph NE1.4 kmh NE 6.0 mph9.7 kmh 30.09 in1019.0 mb 0.01 in0.3 mm 0.00 in0.0 mm 0.01 in0.3 mm
01:13 AM 65.8°F18.8°C 64.9°F18.3°C 97% 2.0 mph ENE3.2 kmh ENE 8.1 mph13.0 kmh 30.09 in1019.0 mb 0.00 in0.0 mm 0.00 in0.0 mm 0.01 in0.3 mm
01:23 AM 65.7°F18.7°C 64.8°F18.2°C 97% 2.0 mph NE3.2 kmh NE 6.9 mph11.1 kmh 30.09 in1019.0 mb 0.00 in0.0 mm 0.00 in0.0 mm 0.01 in0.3 mm
01:33 AM 65.7°F18.7°C 64.8°F18.2°C 97% Calm Calm 2.9 mph4.7 kmh 30.09 in1019.0 mb 0.00 in0.0 mm 0.00 in0.0 mm 0.01 in0.3 mm
01:43 AM 65.8°F18.8°C 64.9°F18.3°C 97% 0.9 mph E1.4 kmh E 7.0 mph11.3 kmh 30.09 in1019.0 mb 0.00 in0.0 mm 0.00 in0.0 mm 0.01 in0.3 mm
01:53 AM 65.7°F18.7°C 64.8°F18.2°C 97% 0.9 mph NNE1.4 kmh NNE 2.9 mph4.7 kmh 30.09 in1019.0 mb 0.00 in0.0 mm 0.00 in0.0 mm 0.01 in0.3 mm
02:03 AM 65.7°F18.7°C 64.8°F18.2°C 97% Calm Calm 2.9 mph4.7 kmh 30.09 in1019.0 mb 0.00 in0.0 mm 0.00 in0.0 mm 0.01 in0.3 mm
02:13 AM 65.7°F18.7°C 64.8°F18.2°C 97% Calm Calm 3.0 mph4.8 kmh 30.08 in1018.6 mb 0.00 in0.0 mm 0.00 in0.0 mm 0.01 in0.3 mm
02:23 AM 65.7°F18.7°C 64.8°F18.2°C 97% Calm Calm 2.0 mph3.2 kmh 30.09 in1019.0 mb 0.00 in0.0 mm 0.00 in0.0 mm 0.01 in0.3 mm
02:33 AM 65.7°F18.7°C 64.8°F18.2°C 97% Calm Calm 4.0 mph6.4 kmh 30.08 in1018.6 mb 0.00 in0.0 mm 0.00 in0.0 mm 0.01 in0.3 mm
02:43 AM 65.7°F18.7°C 64.4°F18.0°C 96% Calm Calm 2.9 mph4.7 kmh 30.08 in1018.6 mb 0.00 in0.0 mm 0.00 in0.0 mm 0.01 in0.3 mm
02:53 AM 65.8°F18.8°C 64.6°F18.1°C 96% 0.9 mph NW1.4 kmh NW 6.0 mph9.7 kmh 30.09 in1019.0 mb 0.00 in0.0 mm 0.00 in0.0 mm 0.01 in0.3 mm
03:03 AM 65.7°F18.7°C 64.4°F18.0°C 96% 0.9 mph E1.4 kmh E 4.9 mph7.9 kmh 30.09 in1019.0 mb 0.00 in0.0 mm 0.00 in0.0 mm 0.01 in0.3 mm
03:13 AM 65.7°F18.7°C 64.8°F18.2°C 97% 0.9 mph NE1.4 kmh NE 4.0 mph6.4 kmh 30.09 in1019.0 mb 0.00 in0.0 mm 0.00 in0.0 mm 0.01 in0.3 mm
03:23 AM 65.7°F18.7°C 64.8°F18.2°C 97% 0.9 mph ENE1.4 kmh ENE 5.0 mph8.0 kmh 30.09 in1019.0 mb 0.00 in0.0 mm 0.00 in0.0 mm 0.01 in0.3 mm
03:33 AM 65.7°F18.7°C 64.8°F18.2°C 97% 0.9 mph NE1.4 kmh NE 5.0 mph8.0 kmh 30.09 in1019.0 mb 0.01 in0.3 mm 0.06 in1.5 mm 0.02 in0.5 mm
03:43 AM 65.5°F18.6°C 64.6°F18.1°C 97% 0.9 mph NE1.4 kmh NE 4.0 mph6.4 kmh 30.09 in1019.0 mb 0.01 in0.3 mm 0.00 in0.0 mm 0.02 in0.5 mm
03:53 AM 65.5°F18.6°C 64.6°F18.1°C 97% 0.9 mph SE1.4 kmh SE 4.9 mph7.9 kmh 30.09 in1019.0 mb 0.01 in0.3 mm 0.00 in0.0 mm 0.02 in0.5 mm
04:03 AM 65.5°F18.6°C 64.6°F18.1°C 97% 0.9 mph ENE1.4 kmh ENE 4.9 mph7.9 kmh 30.09 in1019.0 mb 0.01 in0.3 mm 0.00 in0.0 mm 0.02 in0.5 mm
04:13 AM 65.5°F18.6°C 64.6°F18.1°C 97% 0.9 mph W1.4 kmh W 4.0 mph6.4 kmh 30.09 in1019.0 mb 0.01 in0.3 mm 0.00 in0.0 mm 0.02 in0.5 mm
04:23 AM 65.5°F18.6°C 64.6°F18.1°C 97% 0.9 mph ENE1.4 kmh ENE 8.1 mph13.0 kmh 30.09 in1019.0 mb 0.01 in0.3 mm 0.00 in0.0 mm 0.02 in0.5 mm
04:33 AM 65.5°F18.6°C 64.6°F18.1°C 97% 2.0 mph NNE3.2 kmh NNE 6.0 mph9.7 kmh 30.09 in1019.0 mb 0.00 in0.0 mm 0.00 in0.0 mm 0.02 in0.5 mm
04:43 AM 65.5°F18.6°C 64.6°F18.1°C 97% 0.9 mph NNE1.4 kmh NNE 4.9 mph7.9 kmh 30.09 in1019.0 mb 0.01 in0.3 mm 0.06 in1.5 mm 0.03 in0.8 mm
04:53 AM 65.5°F18.6°C 64.6°F18.1°C 97% 0.9 mph ENE1.4 kmh ENE 6.0 mph9.7 kmh 30.09 in1019.0 mb 0.02 in0.5 mm 0.06 in1.5 mm 0.04 in1.0 mm
05:03 AM 65.5°F18.6°C 64.6°F18.1°C 97% 0.9 mph E1.4 kmh E 6.0 mph9.7 kmh 30.09 in1019.0 mb 0.03 in0.8 mm 0.01 in0.3 mm 0.05 in1.3 mm
05:13 AM 65.5°F18.6°C 64.6°F18.1°C 97% 0.9 mph NE1.4 kmh NE 5.0 mph8.0 kmh 30.09 in1019.0 mb 0.03 in0.8 mm 0.00 in0.0 mm 0.05 in1.3 mm
05:23 AM 65.5°F18.6°C 64.6°F18.1°C 97% 2.0 mph E3.2 kmh E 6.0 mph9.7 kmh 30.10 in1019.3 mb 0.03 in0.8 mm 0.00 in0.0 mm 0.05 in1.3 mm
05:33 AM 65.5°F18.6°C 64.6°F18.1°C 97% 0.9 mph E1.4 kmh E 5.0 mph8.0 kmh 30.10 in1019.3 mb 0.04 in1.0 mm 0.06 in1.5 mm 0.06 in1.5 mm
05:43 AM 65.3°F18.5°C 64.4°F18.0°C 97% 0.9 mph NE1.4 kmh NE 7.0 mph11.3 kmh 30.10 in1019.3 mb 0.03 in0.8 mm 0.00 in0.0 mm 0.06 in1.5 mm
05:53 AM 65.1°F18.4°C 64.2°F17.9°C 97% 2.0 mph ENE3.2 kmh ENE 8.1 mph13.0 kmh 30.10 in1019.3 mb 0.02 in0.5 mm 0.00 in0.0 mm 0.06 in1.5 mm
06:03 AM 65.3°F18.5°C 64.4°F18.0°C 97% 0.9 mph N1.4 kmh N 8.1 mph13.0 kmh 30.10 in1019.3 mb 0.02 in0.5 mm 0.00 in0.0 mm 0.07 in1.8 mm
06:13 AM 65.3°F18.5°C 64.4°F18.0°C 97% 0.9 mph ENE1.4 kmh ENE 4.9 mph7.9 kmh 30.11 in1019.6 mb 0.02 in0.5 mm 0.00 in0.0 mm 0.07 in1.8 mm
06:23 AM 65.3°F18.5°C 64.4°F18.0°C 97% Calm Calm 4.9 mph7.9 kmh 30.11 in1019.6 mb 0.02 in0.5 mm 0.00 in0.0 mm 0.07 in1.8 mm
06:33 AM 65.5°F18.6°C 64.6°F18.1°C 97% Calm Calm 6.0 mph9.7 kmh 30.12 in1020.0 mb 0.01 in0.3 mm 0.00 in0.0 mm 0.07 in1.8 mm
06:43 AM 65.5°F18.6°C 64.6°F18.1°C 97% Calm Calm 0.9 mph1.4 kmh 30.12 in1020.0 mb 0.01 in0.3 mm 0.00 in0.0 mm 0.07 in1.8 mm
06:53 AM 65.5°F18.6°C 64.6°F18.1°C 97% Calm Calm 4.0 mph6.4 kmh 30.13 in1020.3 mb 0.01 in0.3 mm 0.00 in0.0 mm 0.07 in1.8 mm
07:03 AM 65.5°F18.6°C 64.6°F18.1°C 97% Calm Calm 4.9 mph7.9 kmh 30.13 in1020.3 mb 0.00 in0.0 mm 0.00 in0.0 mm 0.07 in1.8 mm
07:13 AM 65.5°F18.6°C 64.6°F18.1°C 97% Calm Calm 2.9 mph4.7 kmh 30.13 in1020.3 mb 0.00 in0.0 mm 0.00 in0.0 mm 0.07 in1.8 mm
07:23 AM 65.5°F18.6°C 64.6°F18.1°C 97% 0.9 mph E1.4 kmh E 6.9 mph11.1 kmh 30.14 in1020.7 mb 0.00 in0.0 mm 0.00 in0.0 mm 0.07 in1.8 mm
07:33 AM 65.5°F18.6°C 64.6°F18.1°C 97% 0.9 mph E1.4 kmh E 4.9 mph7.9 kmh 30.13 in1020.3 mb 0.00 in0.0 mm 0.00 in0.0 mm 0.07 in1.8 mm
07:43 AM 65.5°F18.6°C 64.6°F18.1°C 97% 0.9 mph W1.4 kmh W 8.1 mph13.0 kmh 30.14 in1020.7 mb 0.01 in0.3 mm 0.06 in1.5 mm 0.08 in2.0 mm
07:53 AM 65.5°F18.6°C 64.6°F18.1°C 97% 0.9 mph NE1.4 kmh NE 6.0 mph9.7 kmh 30.14 in1020.7 mb 0.01 in0.3 mm 0.00 in0.0 mm 0.08 in2.0 mm
08:03 AM 65.7°F18.7°C 64.8°F18.2°C 97% 0.9 mph NE1.4 kmh NE 4.9 mph7.9 kmh 30.14 in1020.7 mb 0.03 in0.8 mm 0.02 in0.5 mm 0.10 in2.5 mm
08:13 AM 65.7°F18.7°C 64.8°F18.2°C 97% 2.0 mph E3.2 kmh E 8.1 mph13.0 kmh 30.14 in1020.7 mb 0.03 in0.8 mm 0.00 in0.0 mm 0.10 in2.5 mm
08:23 AM 65.7°F18.7°C 64.8°F18.2°C 97% 0.9 mph NE1.4 kmh NE 4.9 mph7.9 kmh 30.14 in1020.7 mb 0.04 in1.0 mm 0.06 in1.5 mm 0.11 in2.8 mm
08:33 AM 65.7°F18.7°C 64.8°F18.2°C 97% 2.0 mph NE3.2 kmh NE 7.0 mph11.3 kmh 30.14 in1020.7 mb 0.05 in1.3 mm 0.06 in1.5 mm 0.12 in3.0 mm
08:43 AM 65.7°F18.7°C 64.8°F18.2°C 97% 2.0 mph NNW3.2 kmh NNW 9.0 mph14.5 kmh 30.15 in1021.0 mb 0.04 in1.0 mm 0.00 in0.0 mm 0.12 in3.0 mm
08:53 AM 65.5°F18.6°C 64.6°F18.1°C 97% 2.0 mph ESE3.2 kmh ESE 10.1 mph16.3 kmh 30.15 in1021.0 mb 0.04 in1.0 mm 0.00 in0.0 mm 0.12 in3.0 mm
09:03 AM 65.7°F18.7°C 64.8°F18.2°C 97% Calm Calm 4.0 mph6.4 kmh 30.16 in1021.3 mb 0.03 in0.8 mm 0.00 in0.0 mm 0.13 in3.3 mm
09:13 AM 65.7°F18.7°C 64.8°F18.2°C 97% 0.9 mph SW1.4 kmh SW 4.9 mph7.9 kmh 30.16 in1021.3 mb 0.03 in0.8 mm 0.00 in0.0 mm 0.13 in3.3 mm
09:23 AM 65.5°F18.6°C 64.6°F18.1°C 97% 2.0 mph NE3.2 kmh NE 10.1 mph16.3 kmh 30.16 in1021.3 mb 0.02 in0.5 mm 0.00 in0.0 mm 0.13 in3.3 mm
09:33 AM 65.7°F18.7°C 64.8°F18.2°C 97% 2.0 mph E3.2 kmh E 8.1 mph13.0 kmh 30.16 in1021.3 mb 0.01 in0.3 mm 0.00 in0.0 mm 0.13 in3.3 mm
09:43 AM 65.8°F18.8°C 64.9°F18.3°C 97% 0.9 mph ESE1.4 kmh ESE 11.0 mph17.7 kmh 30.16 in1021.3 mb 0.01 in0.3 mm 0.00 in0.0 mm 0.13 in3.3 mm
09:53 AM 66.6°F19.2°C 65.7°F18.7°C 97% 2.0 mph E3.2 kmh E 8.9 mph14.3 kmh 30.17 in1021.7 mb 0.01 in0.3 mm 0.00 in0.0 mm 0.13 in3.3 mm
10:04 AM 66.7°F19.3°C 65.5°F18.6°C 96% 0.9 mph NE1.4 kmh NE 6.0 mph9.7 kmh 30.17 in1021.7 mb 0.00 in0.0 mm 0.00 in0.0 mm 0.13 in3.3 mm
10:14 AM 66.7°F19.3°C 65.5°F18.6°C 96% 2.0 mph E3.2 kmh E 6.0 mph9.7 kmh 30.17 in1021.7 mb 0.00 in0.0 mm 0.00 in0.0 mm 0.13 in3.3 mm
10:24 AM 66.6°F19.2°C 65.3°F18.5°C 96% 0.9 mph E1.4 kmh E 8.1 mph13.0 kmh 30.17 in1021.7 mb 0.00 in0.0 mm 0.00 in0.0 mm 0.13 in3.3 mm
10:34 AM 66.6°F19.2°C 65.3°F18.5°C 96% 2.0 mph E3.2 kmh E 9.0 mph14.5 kmh 30.17 in1021.7 mb 0.00 in0.0 mm 0.00 in0.0 mm 0.13 in3.3 mm
10:44 AM 66.7°F19.3°C 65.3°F18.5°C 95% 2.0 mph E3.2 kmh E 6.0 mph9.7 kmh 30.17 in1021.7 mb 0.00 in0.0 mm 0.00 in0.0 mm 0.13 in3.3 mm
10:54 AM 66.7°F19.3°C 65.3°F18.5°C 95% 2.9 mph NE4.7 kmh NE 11.0 mph17.7 kmh 30.17 in1021.7 mb 0.00 in0.0 mm 0.00 in0.0 mm 0.13 in3.3 mm
11:04 AM 67.3°F19.6°C 65.5°F18.6°C 94% 4.0 mph NNE6.4 kmh NNE 12.1 mph19.5 kmh 30.16 in1021.3 mb 0.00 in0.0 mm 0.00 in0.0 mm 0.13 in3.3 mm
11:14 AM 68.0°F20.0°C 65.8°F18.8°C 93% 2.9 mph E4.7 kmh E 8.9 mph14.3 kmh 30.16 in1021.3 mb 0.00 in0.0 mm 0.00 in0.0 mm 0.13 in3.3 mm
11:24 AM 68.4°F20.2°C 65.7°F18.7°C 91% 4.0 mph E6.4 kmh E 15.0 mph24.1 kmh 30.16 in1021.3 mb 0.00 in0.0 mm 0.00 in0.0 mm 0.13 in3.3 mm
11:34 AM 68.7°F20.4°C 66.0°F18.9°C 91% 4.0 mph NE6.4 kmh NE 14.1 mph22.7 kmh 30.15 in1021.0 mb 0.00 in0.0 mm 0.00 in0.0 mm 0.13 in3.3 mm
11:44 AM 68.9°F20.5°C 65.8°F18.8°C 90% 4.0 mph E6.4 kmh E 12.1 mph19.5 kmh 30.15 in1021.0 mb 0.00 in0.0 mm 0.00 in0.0 mm 0.13 in3.3 mm
11:54 AM 69.1°F20.6°C 65.7°F18.7°C 89% 4.0 mph SE6.4 kmh SE 13.0 mph20.9 kmh 30.15 in1021.0 mb 0.00 in0.0 mm 0.00 in0.0 mm 0.13 in3.3 mm
12:04 PM 69.4°F20.8°C 65.7°F18.7°C 88% 4.0 mph E6.4 kmh E 12.1 mph19.5 kmh 30.15 in1021.0 mb 0.00 in0.0 mm 0.00 in0.0 mm 0.13 in3.3 mm
12:14 PM 69.4°F20.8°C 65.7°F18.7°C 88% 2.9 mph E4.7 kmh E 12.1 mph19.5 kmh 30.15 in1021.0 mb 0.00 in0.0 mm 0.00 in0.0 mm 0.13 in3.3 mm
12:24 PM 69.6°F20.9°C 65.7°F18.7°C 87% 2.9 mph ENE4.7 kmh ENE 10.1 mph16.3 kmh 30.15 in1021.0 mb 0.00 in0.0 mm 0.00 in0.0 mm 0.13 in3.3 mm
12:34 PM 70.2°F21.2°C 66.0°F18.9°C 87% 2.9 mph E4.7 kmh E 10.1 mph16.3 kmh 30.15 in1021.0 mb 0.00 in0.0 mm 0.00 in0.0 mm 0.13 in3.3 mm
12:44 PM 70.3°F21.3°C 66.2°F19.0°C 87% 2.9 mph NE4.7 kmh NE 10.1 mph16.3 kmh 30.15 in1021.0 mb 0.00 in0.0 mm 0.00 in0.0 mm 0.13 in3.3 mm
12:54 PM 70.3°F21.3°C 66.0°F18.9°C 86% 2.9 mph E4.7 kmh E 11.0 mph17.7 kmh 30.15 in1021.0 mb 0.00 in0.0 mm 0.00 in0.0 mm 0.13 in3.3 mm
01:04 PM 70.2°F21.2°C 65.8°F18.8°C 86% 2.9 mph ENE4.7 kmh ENE 11.0 mph17.7 kmh 30.15 in1021.0 mb 0.00 in0.0 mm 0.00 in0.0 mm 0.13 in3.3 mm
01:14 PM 70.0°F21.1°C 65.7°F18.7°C 86% 4.9 mph E7.9 kmh E 11.0 mph17.7 kmh 30.15 in1021.0 mb 0.00 in0.0 mm 0.00 in0.0 mm 0.13 in3.3 mm
01:24 PM 70.2°F21.2°C 66.0°F18.9°C 87% 4.0 mph NE6.4 kmh NE 10.1 mph16.3 kmh 30.15 in1021.0 mb 0.00 in0.0 mm 0.00 in0.0 mm 0.13 in3.3 mm
01:34 PM 70.3°F21.3°C 66.0°F18.9°C 86% 4.0 mph E6.4 kmh E 12.1 mph19.5 kmh 30.15 in1021.0 mb 0.00 in0.0 mm 0.00 in0.0 mm 0.13 in3.3 mm
01:44 PM 70.3°F21.3°C 65.7°F18.7°C 85% 4.0 mph NNW6.4 kmh NNW 11.0 mph17.7 kmh 30.15 in1021.0 mb 0.00 in0.0 mm 0.00 in0.0 mm 0.13 in3.3 mm
01:54 PM 70.7°F21.5°C 66.4°F19.1°C 86% 2.9 mph NNE4.7 kmh NNE 12.1 mph19.5 kmh 30.15 in1021.0 mb 0.00 in0.0 mm 0.00 in0.0 mm 0.13 in3.3 mm
02:04 PM 70.9°F21.6°C 66.2°F19.0°C 85% 2.9 mph NE4.7 kmh NE 8.9 mph14.3 kmh 30.14 in1020.7 mb 0.00 in0.0 mm 0.00 in0.0 mm 0.13 in3.3 mm
02:14 PM 70.9°F21.6°C 66.2°F19.0°C 85% 4.0 mph NE6.4 kmh NE 12.1 mph19.5 kmh 30.14 in1020.7 mb 0.00 in0.0 mm 0.00 in0.0 mm 0.13 in3.3 mm
02:24 PM 70.5°F21.4°C 65.8°F18.8°C 85% 2.9 mph E4.7 kmh E 8.9 mph14.3 kmh 30.15 in1021.0 mb 0.00 in0.0 mm 0.00 in0.0 mm 0.13 in3.3 mm
02:34 PM 71.1°F21.7°C 66.0°F18.9°C 84% 2.9 mph NNE4.7 kmh NNE 12.1 mph19.5 kmh 30.14 in1020.7 mb 0.00 in0.0 mm 0.00 in0.0 mm 0.13 in3.3 mm
02:44 PM 71.1°F21.7°C 66.0°F18.9°C 84% 2.9 mph N4.7 kmh N 8.1 mph13.0 kmh 30.15 in1021.0 mb 0.00 in0.0 mm 0.00 in0.0 mm 0.13 in3.3 mm
02:54 PM 71.1°F21.7°C 65.7°F18.7°C 83% 2.9 mph NNE4.7 kmh NNE 10.1 mph16.3 kmh 30.15 in1021.0 mb 0.00 in0.0 mm 0.00 in0.0 mm 0.13 in3.3 mm
03:04 PM 70.9°F21.6°C 65.8°F18.8°C 84% 2.0 mph ENE3.2 kmh ENE 8.1 mph13.0 kmh 30.15 in1021.0 mb 0.00 in0.0 mm 0.00 in0.0 mm 0.13 in3.3 mm
03:14 PM 70.7°F21.5°C 65.7°F18.7°C 84% 2.0 mph NE3.2 kmh NE 8.1 mph13.0 kmh 30.15 in1021.0 mb 0.00 in0.0 mm 0.00 in0.0 mm 0.13 in3.3 mm
03:24 PM 70.3°F21.3°C 65.3°F18.5°C 84% 2.9 mph NW4.7 kmh NW 12.1 mph19.5 kmh 30.15 in1021.0 mb 0.00 in0.0 mm 0.00 in0.0 mm 0.13 in3.3 mm
03:34 PM 70.3°F21.3°C 65.7°F18.7°C 85% 2.9 mph ENE4.7 kmh ENE 8.9 mph14.3 kmh 30.15 in1021.0 mb 0.00 in0.0 mm 0.00 in0.0 mm 0.13 in3.3 mm
03:44 PM 70.3°F21.3°C 65.3°F18.5°C 84% 2.0 mph NNE3.2 kmh NNE 10.1 mph16.3 kmh 30.15 in1021.0 mb 0.00 in0.0 mm 0.00 in0.0 mm 0.13 in3.3 mm
03:54 PM 70.5°F21.4°C 65.5°F18.6°C 84% 2.9 mph NE4.7 kmh NE 8.1 mph13.0 kmh 30.15 in1021.0 mb 0.00 in0.0 mm 0.00 in0.0 mm 0.13 in3.3 mm
04:04 PM 70.5°F21.4°C 65.1°F18.4°C 83% 2.9 mph ENE4.7 kmh ENE 6.9 mph11.1 kmh 30.14 in1020.7 mb 0.00 in0.0 mm 0.00 in0.0 mm 0.13 in3.3 mm
04:14 PM 70.3°F21.3°C 65.3°F18.5°C 84% 4.0 mph NE6.4 kmh NE 12.1 mph19.5 kmh 30.14 in1020.7 mb 0.00 in0.0 mm 0.00 in0.0 mm 0.13 in3.3 mm
04:24 PM 71.1°F21.7°C 65.3°F18.5°C 82% 2.9 mph NW4.7 kmh NW 8.1 mph13.0 kmh 30.15 in1021.0 mb 0.00 in0.0 mm 0.00 in0.0 mm 0.13 in3.3 mm
04:34 PM 70.9°F21.6°C 65.1°F18.4°C 82% 2.9 mph NNE4.7 kmh NNE 9.0 mph14.5 kmh 30.15 in1021.0 mb 0.00 in0.0 mm 0.00 in0.0 mm 0.13 in3.3 mm
04:44 PM 70.7°F21.5°C 64.9°F18.3°C 82% 2.9 mph ENE4.7 kmh ENE 11.0 mph17.7 kmh 30.15 in1021.0 mb 0.00 in0.0 mm 0.00 in0.0 mm 0.13 in3.3 mm
04:54 PM 71.1°F21.7°C 65.7°F18.7°C 83% 2.0 mph ENE3.2 kmh ENE 8.9 mph14.3 kmh 30.15 in1021.0 mb 0.00 in0.0 mm 0.00 in0.0 mm 0.13 in3.3 mm
05:04 PM 71.4°F21.9°C 65.3°F18.5°C 81% 2.0 mph E3.2 kmh E 8.9 mph14.3 kmh 30.15 in1021.0 mb 0.00 in0.0 mm 0.00 in0.0 mm 0.13 in3.3 mm
05:14 PM 70.9°F21.6°C 65.1°F18.4°C 82% 4.0 mph ENE6.4 kmh ENE 10.1 mph16.3 kmh 30.16 in1021.3 mb 0.00 in0.0 mm 0.00 in0.0 mm 0.13 in3.3 mm
05:24 PM 70.5°F21.4°C 65.1°F18.4°C 83% 0.9 mph NE1.4 kmh NE 6.9 mph11.1 kmh 30.16 in1021.3 mb 0.00 in0.0 mm 0.00 in0.0 mm 0.13 in3.3 mm
05:34 PM 69.6°F20.9°C 64.6°F18.1°C 84% 2.9 mph NNE4.7 kmh NNE 8.1 mph13.0 kmh 30.16 in1021.3 mb 0.00 in0.0 mm 0.00 in0.0 mm 0.13 in3.3 mm
05:44 PM 68.7°F20.4°C 64.0°F17.8°C 85% 2.9 mph NE4.7 kmh NE 9.0 mph14.5 kmh 30.16 in1021.3 mb 0.00 in0.0 mm 0.00 in0.0 mm 0.13 in3.3 mm
05:54 PM 68.5°F20.3°C 64.6°F18.1°C 87% 2.9 mph E4.7 kmh E 8.9 mph14.3 kmh 30.15 in1021.0 mb 0.00 in0.0 mm 0.00 in0.0 mm 0.13 in3.3 mm
06:04 PM 68.4°F20.2°C 64.4°F18.0°C 87% 2.0 mph E3.2 kmh E 8.9 mph14.3 kmh 30.15 in1021.0 mb 0.00 in0.0 mm 0.00 in0.0 mm 0.13 in3.3 mm
06:14 PM 68.2°F20.1°C 64.2°F17.9°C 87% 2.0 mph NW3.2 kmh NW 10.1 mph16.3 kmh 30.15 in1021.0 mb 0.00 in0.0 mm 0.00 in0.0 mm 0.13 in3.3 mm
06:24 PM 68.0°F20.0°C 64.4°F18.0°C 88% 2.9 mph ENE4.7 kmh ENE 13.0 mph20.9 kmh 30.15 in1021.0 mb 0.00 in0.0 mm 0.00 in0.0 mm 0.13 in3.3 mm
06:34 PM 67.8°F19.9°C 64.2°F17.9°C 88% 2.0 mph ENE3.2 kmh ENE 7.0 mph11.3 kmh 30.15 in1021.0 mb 0.00 in0.0 mm 0.00 in0.0 mm 0.13 in3.3 mm
06:44 PM 67.6°F19.8°C 64.0°F17.8°C 88% 2.9 mph NW4.7 kmh NW 6.0 mph9.7 kmh 30.15 in1021.0 mb 0.00 in0.0 mm 0.00 in0.0 mm 0.13 in3.3 mm
06:54 PM 67.6°F19.8°C 64.2°F17.9°C 89% 2.0 mph ENE3.2 kmh ENE 7.0 mph11.3 kmh 30.15 in1021.0 mb 0.00 in0.0 mm 0.00 in0.0 mm 0.13 in3.3 mm
07:04 PM 67.5°F19.7°C 64.0°F17.8°C 89% 2.0 mph NE3.2 kmh NE 7.0 mph11.3 kmh 30.15 in1021.0 mb 0.00 in0.0 mm 0.00 in0.0 mm 0.13 in3.3 mm
07:14 PM 67.3°F19.6°C 64.2°F17.9°C 90% 2.0 mph NE3.2 kmh NE 7.0 mph11.3 kmh 30.15 in1021.0 mb 0.00 in0.0 mm 0.00 in0.0 mm 0.13 in3.3 mm
07:24 PM 67.1°F19.5°C 64.0°F17.8°C 90% 0.9 mph NE1.4 kmh NE 4.9 mph7.9 kmh 30.15 in1021.0 mb 0.00 in0.0 mm 0.00 in0.0 mm 0.13 in3.3 mm
07:34 PM 66.9°F19.4°C 64.2°F17.9°C 91% 2.0 mph E3.2 kmh E 7.0 mph11.3 kmh 30.15 in1021.0 mb 0.00 in0.0 mm 0.00 in0.0 mm 0.13 in3.3 mm
07:44 PM 66.7°F19.3°C 64.0°F17.8°C 91% 2.0 mph ENE3.2 kmh ENE 6.9 mph11.1 kmh 30.15 in1021.0 mb 0.00 in0.0 mm 0.00 in0.0 mm 0.13 in3.3 mm
07:54 PM 66.6°F19.2°C 63.9°F17.7°C 91% 0.9 mph SSE1.4 kmh SSE 6.0 mph9.7 kmh 30.15 in1021.0 mb 0.00 in0.0 mm 0.00 in0.0 mm 0.13 in3.3 mm
08:04 PM 66.6°F19.2°C 63.9°F17.7°C 91% 0.9 mph ENE1.4 kmh ENE 6.0 mph9.7 kmh 30.15 in1021.0 mb 0.00 in0.0 mm 0.00 in0.0 mm 0.13 in3.3 mm
08:14 PM 66.4°F19.1°C 63.7°F17.6°C 91% 0.9 mph E1.4 kmh E 6.0 mph9.7 kmh 30.16 in1021.3 mb 0.00 in0.0 mm 0.00 in0.0 mm 0.13 in3.3 mm
08:24 PM 66.4°F19.1°C 64.0°F17.8°C 92% 0.9 mph ENE1.4 kmh ENE 6.9 mph11.1 kmh 30.16 in1021.3 mb 0.00 in0.0 mm 0.00 in0.0 mm 0.13 in3.3 mm
08:34 PM 66.2°F19.0°C 63.9°F17.7°C 92% Calm Calm 5.0 mph8.0 kmh 30.16 in1021.3 mb 0.00 in0.0 mm 0.00 in0.0 mm 0.13 in3.3 mm
08:44 PM 66.0°F18.9°C 63.7°F17.6°C 92% Calm Calm 2.0 mph3.2 kmh 30.16 in1021.3 mb 0.00 in0.0 mm 0.00 in0.0 mm 0.13 in3.3 mm
08:54 PM 66.0°F18.9°C 63.7°F17.6°C 92% Calm Calm 3.0 mph4.8 kmh 30.16 in1021.3 mb 0.00 in0.0 mm 0.00 in0.0 mm 0.13 in3.3 mm
09:04 PM 65.8°F18.8°C 63.5°F17.5°C 92% 0.9 mph NE1.4 kmh NE 5.0 mph8.0 kmh 30.17 in1021.7 mb 0.00 in0.0 mm 0.00 in0.0 mm 0.13 in3.3 mm
09:14 PM 65.8°F18.8°C 63.7°F17.6°C 93% 0.9 mph ESE1.4 kmh ESE 4.9 mph7.9 kmh 30.17 in1021.7 mb 0.00 in0.0 mm 0.00 in0.0 mm 0.13 in3.3 mm
09:24 PM 65.8°F18.8°C 63.7°F17.6°C 93% Calm Calm 4.0 mph6.4 kmh 30.16 in1021.3 mb 0.00 in0.0 mm 0.00 in0.0 mm 0.13 in3.3 mm
09:34 PM 65.8°F18.8°C 63.7°F17.6°C 93% Calm Calm 2.9 mph4.7 kmh 30.16 in1021.3 mb 0.00 in0.0 mm 0.00 in0.0 mm 0.13 in3.3 mm
09:44 PM 66.0°F18.9°C 63.9°F17.7°C 93% 0.9 mph E1.4 kmh E 4.0 mph6.4 kmh 30.17 in1021.7 mb 0.00 in0.0 mm 0.00 in0.0 mm 0.13 in3.3 mm
09:54 PM 66.0°F18.9°C 63.9°F17.7°C 93% Calm Calm -- 30.17 in1021.7 mb 0.00 in0.0 mm 0.00 in0.0 mm 0.13 in3.3 mm
10:04 PM 66.0°F18.9°C 63.9°F17.7°C 93% Calm Calm 2.9 mph4.7 kmh 30.17 in1021.7 mb 0.00 in0.0 mm 0.00 in0.0 mm 0.13 in3.3 mm
10:14 PM 66.0°F18.9°C 63.9°F17.7°C 93% Calm Calm 0.9 mph1.4 kmh 30.17 in1021.7 mb 0.00 in0.0 mm 0.00 in0.0 mm 0.13 in3.3 mm
10:24 PM 66.0°F18.9°C 63.9°F17.7°C 93% Calm Calm 2.9 mph4.7 kmh 30.18 in1022.0 mb 0.00 in0.0 mm 0.00 in0.0 mm 0.13 in3.3 mm
10:34 PM 66.0°F18.9°C 63.9°F17.7°C 93% Calm Calm 2.0 mph3.2 kmh 30.18 in1022.0 mb 0.00 in0.0 mm 0.00 in0.0 mm 0.13 in3.3 mm
10:44 PM 66.0°F18.9°C 63.9°F17.7°C 93% Calm Calm 2.0 mph3.2 kmh 30.17 in1021.7 mb 0.00 in0.0 mm 0.00 in0.0 mm 0.13 in3.3 mm
10:54 PM 66.0°F18.9°C 63.9°F17.7°C 93% Calm Calm 0.9 mph1.4 kmh 30.17 in1021.7 mb 0.00 in0.0 mm 0.00 in0.0 mm 0.13 in3.3 mm
11:04 PM 65.8°F18.8°C 63.7°F17.6°C 93% Calm Calm 2.0 mph3.2 kmh 30.17 in1021.7 mb 0.00 in0.0 mm 0.00 in0.0 mm 0.13 in3.3 mm
11:14 PM 65.8°F18.8°C 63.7°F17.6°C 93% Calm Calm 0.9 mph1.4 kmh 30.17 in1021.7 mb 0.00 in0.0 mm 0.00 in0.0 mm 0.13 in3.3 mm
11:24 PM 65.7°F18.7°C 63.9°F17.7°C 94% Calm Calm 0.9 mph1.4 kmh 30.17 in1021.7 mb 0.00 in0.0 mm 0.00 in0.0 mm 0.13 in3.3 mm
11:34 PM 65.7°F18.7°C 63.9°F17.7°C 94% Calm Calm 4.0 mph6.4 kmh 30.16 in1021.3 mb 0.00 in0.0 mm 0.00 in0.0 mm 0.13 in3.3 mm
11:44 PM 65.8°F18.8°C 64.0°F17.8°C 94% Calm Calm 2.0 mph3.2 kmh 30.16 in1021.3 mb 0.00 in0.0 mm 0.00 in0.0 mm 0.13 in3.3 mm
11:54 PM 65.7°F18.7°C 63.9°F17.7°C 94% Calm Calm 0.9 mph1.4 kmh 30.16 in1021.3 mb 0.00 in0.0 mm 0.00 in0.0 mm 0.13 in3.3 mm